Mammoth Lakes, CA

8:26 PM PDT on October 24, 2014 (GMT -0700)
RAWS CRESTVIEW CA US | Change Station
CLOSE
Current Station
Personal Weather Station
Location: June Lake, CA
Elevation: 7569 ft
Nearby Weather Stations
Active Advisory: Wind Advisory

Elev 7569 ft 37.74 °N, 119.00 °W | Updated 33 minutes ago

Clear
Clear
51 °F
Feels Like 51 °F
N
4
Wind Variable Wind from WNW
Gusts 11.0 mph

Today
High -- | Low -- °F
--% Chance of Precip.
Yesterday
High -- | Low -- °F
Precip. -- in
7:13 AM 6:06 PM
New Moon, 2% visible
Pressure 30.18 in
Visibility 10.0 miles
Clouds Clear
Dew Point 17 °F
Humidity 26%
Rainfall 0.00 in
Snow Depth Not available.
UV 0 out of 12
Pollen 2.30 out of 12
Air Quality Not available.
Flu Activity Sporadic
METAR KMMH 250315Z AUTO 00000KT 10SM CLR 09/M11 A3018 RMK AO1

More Conditions Fewer Conditions

Pressure 30.18 in
Visibility 10.0 miles
Clouds Clear
Dew Point 17 °F
Humidity 26%
Rainfall 0.00 in
Snow Depth Not available.
UV 0 out of 12
Pollen 2.30 out of 12
Air Quality Not available.
Flu Activity Sporadic
METAR KMMH 250315Z AUTO 00000KT 10SM CLR 09/M11 A3018 RMK AO1

More Conditions Fewer Conditions

10-Day Weather Forecast

Almanac

Astronomy

Oct. 24, 2014 Rise Set
Actual Time 7:13 AM PDT 6:06 PM PDT
Civil Twilight 6:46 AM PDT 6:33 PM PDT
Nautical Twilight 6:15 AM PDT 7:03 PM PDT
Astronomical Twilight 5:45 AM PDT 7:34 PM PDT
Moon 7:56 AM PDT (10/24) 6:50 PM PDT (10/24)
Length of Visible Light 11h 47m
Length of Day
10h 53m
Tomorrow will be 2m 14s shorter.
New Moon, 2% of the Moon is Illuminated
Today
New Moon
Oct 30
First Quarter
Nov 6
Full
Nov 14
Last Quarter
Nov 22
New

Today's Extremes

State Highs State Lows

Community

WunderPhotos

Upload Photos

1,764,769 photos uploaded!

Nearby

Snow Depth

Station Depth Elevation
Virginia Lakes Ridge 0 in 9200 ft
Leavitt Lake 1 in 9400 ft
Leavitt Meadows 1 in 7200 ft
Summit Meadow 1 in 9122 ft
Monitor Pass 0 in 8350 ft

Earthquake Activity

City Distance Mag. Time & Date
Kettleman City, California 132 miles 2.5 9:08 AM PDT
2014-10-22
Minimum magnitude displayed is 2.5.

Coastal Water Temperatures

Place Temperature
No Stations Reporting

Nearby Weather Stations